sensor_id;sensor_type;location;lat;lon;timestamp;pressure;altitude;pressure_sealevel;temperature;humidity
61537;BME280;48695;53.480;-6.300;2023-02-16T00:01:42;100707.22;;;11.00;69.97
61537;BME280;48695;53.480;-6.300;2023-02-16T00:06:44;100677.00;;;10.91;70.08
61537;BME280;48695;53.480;-6.300;2023-02-16T00:09:09;100680.34;;;10.95;70.16
61537;BME280;48695;53.480;-6.300;2023-02-16T00:11:35;100685.56;;;10.96;70.11
61537;BME280;48695;53.480;-6.300;2023-02-16T00:14:20;100682.13;;;10.94;70.08
61537;BME280;48695;53.480;-6.300;2023-02-16T00:16:51;100682.13;;;10.94;70.35
61537;BME280;48695;53.480;-6.300;2023-02-16T00:19:20;100671.66;;;10.94;70.45
61537;BME280;48695;53.480;-6.300;2023-02-16T00:21:48;100674.31;;;10.93;70.50
61537;BME280;48695;53.480;-6.300;2023-02-16T00:24:14;100669.09;;;10.93;70.63
61537;BME280;48695;53.480;-6.300;2023-02-16T00:26:40;100667.34;;;10.93;70.67
61537;BME280;48695;53.480;-6.300;2023-02-16T00:29:13;100656.00;;;10.94;70.42
61537;BME280;48695;53.480;-6.300;2023-02-16T00:31:39;100654.38;;;10.90;70.59
61537;BME280;48695;53.480;-6.300;2023-02-16T00:34:30;100652.56;;;10.92;69.69
61537;BME280;48695;53.480;-6.300;2023-02-16T00:36:57;100656.84;;;10.95;70.24
61537;BME280;48695;53.480;-6.300;2023-02-16T00:39:24;100656.84;;;10.95;70.59
61537;BME280;48695;53.480;-6.300;2023-02-16T00:41:51;100648.13;;;10.96;70.50
61537;BME280;48695;53.480;-6.300;2023-02-16T00:44:39;100652.41;;;10.98;69.48
61537;BME280;48695;53.480;-6.300;2023-02-16T00:47:21;100655.94;;;10.97;70.55
61537;BME280;48695;53.480;-6.300;2023-02-16T00:49:49;100642.94;;;10.94;70.88
61537;BME280;48695;53.480;-6.300;2023-02-16T00:52:37;100644.53;;;11.00;69.97
61537;BME280;48695;53.480;-6.300;2023-02-16T00:55:07;100638.59;;;10.93;70.50
61537;BME280;48695;53.480;-6.300;2023-02-16T00:57:37;100634.97;;;11.00;70.51
61537;BME280;48695;53.480;-6.300;2023-02-16T01:00:19;100634.00;;;11.03;70.16
61537;BME280;48695;53.480;-6.300;2023-02-16T01:02:47;100614.19;;;10.94;71.09
61537;BME280;48695;53.480;-6.300;2023-02-16T01:05:13;100626.22;;;11.01;70.93
61537;BME280;48695;53.480;-6.300;2023-02-16T01:07:38;100623.56;;;11.03;71.00
61537;BME280;48695;53.480;-6.300;2023-02-16T01:10:23;100599.41;;;10.93;70.93
61537;BME280;48695;53.480;-6.300;2023-02-16T01:13:08;100621.75;;;11.05;71.09
61537;BME280;48695;53.480;-6.300;2023-02-16T01:15:34;100618.25;;;11.06;71.18
61537;BME280;48695;53.480;-6.300;2023-02-16T01:18:00;100604.47;;;11.01;71.04
61537;BME280;48695;53.480;-6.300;2023-02-16T01:20:26;100608.66;;;11.06;70.80
61537;BME280;48695;53.480;-6.300;2023-02-16T01:22:52;100619.03;;;11.09;71.23
61537;BME280;48695;53.480;-6.300;2023-02-16T01:25:17;100611.16;;;11.11;71.12
61537;BME280;48695;53.480;-6.300;2023-02-16T01:27:43;100599.19;;;11.02;71.07
61537;BME280;48695;53.480;-6.300;2023-02-16T01:30:15;100606.63;;;11.17;70.72
61537;BME280;48695;53.480;-6.300;2023-02-16T01:32:41;100592.97;;;11.06;71.24
61537;BME280;48695;53.480;-6.300;2023-02-16T01:35:07;100580.72;;;11.08;71.34
61537;BME280;48695;53.480;-6.300;2023-02-16T01:37:33;100604.81;;;11.20;71.38
61537;BME280;48695;53.480;-6.300;2023-02-16T01:39:58;100613.50;;;11.20;70.42
61537;BME280;48695;53.480;-6.300;2023-02-16T01:42:39;100600.31;;;11.25;69.57
61537;BME280;48695;53.480;-6.300;2023-02-16T01:45:11;100601.22;;;11.24;70.49
61537;BME280;48695;53.480;-6.300;2023-02-16T01:47:44;100598.78;;;11.17;69.59
61537;BME280;48695;53.480;-6.300;2023-02-16T01:50:21;100601.94;;;11.29;69.60
61537;BME280;48695;53.480;-6.300;2023-02-16T01:58:11;100598.31;;;11.34;69.03
61537;BME280;48695;53.480;-6.300;2023-02-16T02:03:17;100600.91;;;11.36;69.05
61537;BME280;48695;53.480;-6.300;2023-02-16T02:06:02;100593.06;;;11.34;70.21
61537;BME280;48695;53.480;-6.300;2023-02-16T02:11:23;100569.81;;;11.25;69.63
61537;BME280;48695;53.480;-6.300;2023-02-16T02:16:26;100577.31;;;11.37;69.81
61537;BME280;48695;53.480;-6.300;2023-02-16T02:18:52;100568.69;;;11.34;70.06
61537;BME280;48695;53.480;-6.300;2023-02-16T02:24:55;100579.81;;;11.42;68.93
61537;BME280;48695;53.480;-6.300;2023-02-16T02:35:50;100547.16;;;11.26;69.69
61537;BME280;48695;53.480;-6.300;2023-02-16T02:41:03;100559.69;;;11.44;69.90
61537;BME280;48695;53.480;-6.300;2023-02-16T02:46:22;100550.06;;;11.46;69.35
61537;BME280;48695;53.480;-6.300;2023-02-16T02:48:50;100557.09;;;11.44;70.32
61537;BME280;48695;53.480;-6.300;2023-02-16T02:51:15;100557.09;;;11.44;70.04
61537;BME280;48695;53.480;-6.300;2023-02-16T02:54:04;100562.22;;;11.47;70.89
61537;BME280;48695;53.480;-6.300;2023-02-16T02:57:07;100569.94;;;11.52;70.40
61537;BME280;48695;53.480;-6.300;2023-02-16T02:59:59;100554.47;;;11.44;70.44
61537;BME280;48695;53.480;-6.300;2023-02-16T03:02:46;100551.09;;;11.40;71.37
61537;BME280;48695;53.480;-6.300;2023-02-16T03:05:14;100569.09;;;11.51;70.99
61537;BME280;48695;53.480;-6.300;2023-02-16T03:07:41;100582.91;;;11.56;71.17
61537;BME280;48695;53.480;-6.300;2023-02-16T03:10:22;100598.41;;;11.62;70.67
61537;BME280;48695;53.480;-6.300;2023-02-16T03:13:16;100582.72;;;11.62;70.78
61537;BME280;48695;53.480;-6.300;2023-02-16T03:15:45;100559.50;;;11.50;70.81
61537;BME280;48695;53.480;-6.300;2023-02-16T03:18:13;100586.13;;;11.64;71.03
61537;BME280;48695;53.480;-6.300;2023-02-16T03:20:59;100594.69;;;11.69;71.04
61537;BME280;48695;53.480;-6.300;2023-02-16T03:23:44;100593.78;;;11.72;70.72
61537;BME280;48695;53.480;-6.300;2023-02-16T03:26:28;100589.59;;;11.66;71.56
61537;BME280;48695;53.480;-6.300;2023-02-16T03:29:13;100600.66;;;11.75;70.88
61537;BME280;48695;53.480;-6.300;2023-02-16T03:31:43;100600.59;;;11.78;71.31
61537;BME280;48695;53.480;-6.300;2023-02-16T03:34:10;100595.41;;;11.76;71.48
61537;BME280;48695;53.480;-6.300;2023-02-16T03:36:39;100590.91;;;11.80;71.70
61537;BME280;48695;53.480;-6.300;2023-02-16T03:39:06;100528.13;;;11.50;71.85
61537;BME280;48695;53.480;-6.300;2023-02-16T03:41:34;100579.53;;;11.81;71.38
61537;BME280;48695;53.480;-6.300;2023-02-16T03:44:02;100570.84;;;11.80;71.12
61537;BME280;48695;53.480;-6.300;2023-02-16T03:46:27;100570.78;;;11.83;70.96
61537;BME280;48695;53.480;-6.300;2023-02-16T03:48:53;100561.19;;;11.84;71.09
61537;BME280;48695;53.480;-6.300;2023-02-16T03:51:18;100550.88;;;11.78;71.82
61537;BME280;48695;53.480;-6.300;2023-02-16T03:53:44;100554.13;;;11.86;71.74
61537;BME280;48695;53.480;-6.300;2023-02-16T03:56:09;100562.81;;;11.88;71.85
61537;BME280;48695;53.480;-6.300;2023-02-16T03:58:35;100567.13;;;11.89;71.31
61537;BME280;48695;53.480;-6.300;2023-02-16T04:01:00;100571.44;;;11.90;71.91
61537;BME280;48695;53.480;-6.300;2023-02-16T04:03:26;100568.81;;;11.91;70.36
61537;BME280;48695;53.480;-6.300;2023-02-16T04:05:51;100571.38;;;11.93;71.66
61537;BME280;48695;53.480;-6.300;2023-02-16T04:08:17;100563.41;;;11.96;70.94
61537;BME280;48695;53.480;-6.300;2023-02-16T04:10:43;100563.41;;;11.96;71.45
61537;BME280;48695;53.480;-6.300;2023-02-16T04:13:09;100578.22;;;11.97;71.49
61537;BME280;48695;53.480;-6.300;2023-02-16T04:15:34;100575.56;;;11.99;71.08
61537;BME280;48695;53.480;-6.300;2023-02-16T04:18:00;100565.94;;;11.99;71.47
61537;BME280;48695;53.480;-6.300;2023-02-16T04:20:29;100570.25;;;12.02;71.96
61537;BME280;48695;53.480;-6.300;2023-02-16T04:22:55;100560.84;;;11.94;71.29
61537;BME280;48695;53.480;-6.300;2023-02-16T04:25:20;100574.56;;;12.03;71.86
61537;BME280;48695;53.480;-6.300;2023-02-16T04:27:46;100580.59;;;12.05;71.80
61537;BME280;48695;53.480;-6.300;2023-02-16T04:30:15;100579.66;;;12.07;72.24
61537;BME280;48695;53.480;-6.300;2023-02-16T04:32:40;100570.13;;;12.05;71.99
61537;BME280;48695;53.480;-6.300;2023-02-16T04:35:06;100576.13;;;12.08;72.41
61537;BME280;48695;53.480;-6.300;2023-02-16T04:37:32;100577.84;;;12.09;72.25
61537;BME280;48695;53.480;-6.300;2023-02-16T04:39:58;100583.22;;;12.05;71.44
61537;BME280;48695;53.480;-6.300;2023-02-16T04:42:23;100590.78;;;12.14;71.82
61537;BME280;48695;53.480;-6.300;2023-02-16T04:44:48;100596.88;;;12.14;72.53
61537;BME280;48695;53.480;-6.300;2023-02-16T04:47:14;100592.41;;;12.18;71.82
61537;BME280;48695;53.480;-6.300;2023-02-16T04:49:40;100571.00;;;12.05;71.94
61537;BME280;48695;53.480;-6.300;2023-02-16T04:52:06;100601.94;;;12.20;72.47
61537;BME280;48695;53.480;-6.300;2023-02-16T04:54:32;100604.47;;;12.24;71.66
61537;BME280;48695;53.480;-6.300;2023-02-16T04:56:58;100601.84;;;12.24;72.40
61537;BME280;48695;53.480;-6.300;2023-02-16T04:59:23;100603.56;;;12.25;72.67
61537;BME280;48695;53.480;-6.300;2023-02-16T05:01:49;100591.59;;;12.16;72.78
61537;BME280;48695;53.480;-6.300;2023-02-16T05:04:15;100605.44;;;12.19;72.06
61537;BME280;48695;53.480;-6.300;2023-02-16T05:06:41;100609.50;;;12.30;72.52
61537;BME280;48695;53.480;-6.300;2023-02-16T05:09:06;100611.22;;;12.31;72.33
61537;BME280;48695;53.480;-6.300;2023-02-16T05:11:32;100614.69;;;12.31;71.85
61537;BME280;48695;53.480;-6.300;2023-02-16T05:14:18;100626.88;;;12.32;72.43
61537;BME280;48695;53.480;-6.300;2023-02-16T05:17:03;100615.00;;;12.20;72.16
61537;BME280;48695;53.480;-6.300;2023-02-16T05:19:28;100604.69;;;12.16;72.09
61537;BME280;48695;53.480;-6.300;2023-02-16T05:21:53;100621.66;;;12.32;71.83
61537;BME280;48695;53.480;-6.300;2023-02-16T05:24:19;100622.50;;;12.33;72.17
61537;BME280;48695;53.480;-6.300;2023-02-16T05:26:44;100623.31;;;12.35;72.12
61537;BME280;48695;53.480;-6.300;2023-02-16T05:29:10;100620.69;;;12.35;71.85
61537;BME280;48695;53.480;-6.300;2023-02-16T05:31:35;100622.41;;;12.36;72.07
61537;BME280;48695;53.480;-6.300;2023-02-16T05:34:00;100625.94;;;12.35;72.88
61537;BME280;48695;53.480;-6.300;2023-02-16T05:36:26;100621.66;;;12.32;72.14
61537;BME280;48695;53.480;-6.300;2023-02-16T05:38:51;100640.72;;;12.36;72.44
61537;BME280;48695;53.480;-6.300;2023-02-16T05:41:17;100639.94;;;12.34;72.17
61537;BME280;48695;53.480;-6.300;2023-02-16T05:43:53;100643.47;;;12.33;71.88
61537;BME280;48695;53.480;-6.300;2023-02-16T05:46:20;100657.25;;;12.38;72.31
61537;BME280;48695;53.480;-6.300;2023-02-16T05:48:46;100640.19;;;12.25;71.82
61537;BME280;48695;53.480;-6.300;2023-02-16T05:51:12;100662.59;;;12.35;72.67
61537;BME280;48695;53.480;-6.300;2023-02-16T05:53:37;100644.66;;;12.23;72.95
61537;BME280;48695;53.480;-6.300;2023-02-16T05:56:03;100676.59;;;12.34;72.34
61537;BME280;48695;53.480;-6.300;2023-02-16T05:58:28;100689.63;;;12.35;72.69
61537;BME280;48695;53.480;-6.300;2023-02-16T06:00:54;100697.53;;;12.34;73.02
61537;BME280;48695;53.480;-6.300;2023-02-16T06:03:19;100700.22;;;12.32;72.41
61537;BME280;48695;53.480;-6.300;2023-02-16T06:05:45;100705.34;;;12.35;72.58
61537;BME280;48695;53.480;-6.300;2023-02-16T06:08:10;100713.25;;;12.34;72.56
61537;BME280;48695;53.480;-6.300;2023-02-16T06:10:35;100714.97;;;12.35;71.86
61537;BME280;48695;53.480;-6.300;2023-02-16T06:13:01;100716.66;;;12.36;72.80
61537;BME280;48695;53.480;-6.300;2023-02-16T06:15:27;100712.41;;;12.33;72.17
61537;BME280;48695;53.480;-6.300;2023-02-16T06:17:52;100715.81;;;12.35;72.62
61537;BME280;48695;53.480;-6.300;2023-02-16T06:20:18;100699.63;;;12.23;72.62
61537;BME280;48695;53.480;-6.300;2023-02-16T06:22:43;100726.41;;;12.31;72.93
61537;BME280;48695;53.480;-6.300;2023-02-16T06:25:09;100717.63;;;12.33;72.51
61537;BME280;48695;53.480;-6.300;2023-02-16T06:27:34;100719.41;;;12.33;72.89
61537;BME280;48695;53.480;-6.300;2023-02-16T06:30:00;100715.06;;;12.32;73.00
61537;BME280;48695;53.480;-6.300;2023-02-16T06:32:26;100711.53;;;12.33;72.73
61537;BME280;48695;53.480;-6.300;2023-02-16T06:34:52;100713.31;;;12.31;72.48
61537;BME280;48695;53.480;-6.300;2023-02-16T06:37:17;100729.03;;;12.31;73.19
61537;BME280;48695;53.480;-6.300;2023-02-16T06:39:42;100728.09;;;12.33;72.64
61537;BME280;48695;53.480;-6.300;2023-02-16T06:42:08;100739.44;;;12.34;72.45
61537;BME280;48695;53.480;-6.300;2023-02-16T06:44:33;100725.53;;;12.32;72.71
61537;BME280;48695;53.480;-6.300;2023-02-16T06:46:59;100722.94;;;12.30;73.05
61537;BME280;48695;53.480;-6.300;2023-02-16T06:49:24;100728.09;;;12.33;72.42
61537;BME280;48695;53.480;-6.300;2023-02-16T06:51:50;100728.16;;;12.32;72.82
61537;BME280;48695;53.480;-6.300;2023-02-16T06:54:16;100727.31;;;12.30;72.77
61537;BME280;48695;53.480;-6.300;2023-02-16T06:56:41;100729.88;;;12.31;72.41
61537;BME280;48695;53.480;-6.300;2023-02-16T06:59:07;100729.09;;;12.29;72.43
61537;BME280;48695;53.480;-6.300;2023-02-16T07:01:32;100736.16;;;12.26;73.20
61537;BME280;48695;53.480;-6.300;2023-02-16T07:03:58;100739.81;;;12.22;71.74
61537;BME280;48695;53.480;-6.300;2023-02-16T07:06:25;100742.44;;;12.20;72.61
61537;BME280;48695;53.480;-6.300;2023-02-16T07:08:51;100749.31;;;12.24;70.93
61537;BME280;48695;53.480;-6.300;2023-02-16T07:11:17;100746.88;;;12.18;72.06
61537;BME280;48695;53.480;-6.300;2023-02-16T07:13:43;100741.84;;;12.10;72.71
61537;BME280;48695;53.480;-6.300;2023-02-16T07:16:09;100740.22;;;12.06;72.79
61537;BME280;48695;53.480;-6.300;2023-02-16T07:18:35;100759.38;;;12.08;72.26
61537;BME280;48695;53.480;-6.300;2023-02-16T07:21:00;100743.09;;;11.97;72.92
61537;BME280;48695;53.480;-6.300;2023-02-16T07:23:26;100738.94;;;11.90;72.51
61537;BME280;48695;53.480;-6.300;2023-02-16T07:25:52;100767.47;;;11.99;72.69
61537;BME280;48695;53.480;-6.300;2023-02-16T07:28:17;100740.91;;;11.82;73.11
61537;BME280;48695;53.480;-6.300;2023-02-16T07:30:43;100759.84;;;11.90;73.18
61537;BME280;48695;53.480;-6.300;2023-02-16T07:33:09;100771.22;;;11.89;73.31
61537;BME280;48695;53.480;-6.300;2023-02-16T07:35:35;100781.50;;;11.97;73.10
61537;BME280;48695;53.480;-6.300;2023-02-16T07:38:01;100755.59;;;11.87;73.08
61537;BME280;48695;53.480;-6.300;2023-02-16T07:40:27;100744.34;;;11.84;72.75
61537;BME280;48695;53.480;-6.300;2023-02-16T07:42:52;100770.88;;;12.03;72.57
61537;BME280;48695;53.480;-6.300;2023-02-16T07:45:18;100759.84;;;11.90;73.21
61537;BME280;48695;53.480;-6.300;2023-02-16T07:47:43;100785.78;;;11.99;73.34
61537;BME280;48695;53.480;-6.300;2023-02-16T07:50:09;100790.22;;;11.97;73.32
61537;BME280;48695;53.480;-6.300;2023-02-16T07:52:35;100802.44;;;11.97;73.78
61537;BME280;48695;53.480;-6.300;2023-02-16T07:55:00;100796.31;;;11.96;73.69
61537;BME280;48695;53.480;-6.300;2023-02-16T07:57:27;100801.56;;;11.96;73.83
61537;BME280;48695;53.480;-6.300;2023-02-16T07:59:53;100805.94;;;11.95;73.27
61537;BME280;48695;53.480;-6.300;2023-02-16T08:02:19;100828.63;;;11.95;73.80
61537;BME280;48695;53.480;-6.300;2023-02-16T08:04:46;100840.00;;;11.94;73.50
61537;BME280;48695;53.480;-6.300;2023-02-16T08:07:13;100825.38;;;11.87;73.28
61537;BME280;48695;53.480;-6.300;2023-02-16T08:09:39;100811.63;;;11.77;72.82
61537;BME280;48695;53.480;-6.300;2023-02-16T08:12:09;100814.25;;;11.77;72.51
61537;BME280;48695;53.480;-6.300;2023-02-16T08:14:34;100845.47;;;11.85;73.08
61537;BME280;48695;53.480;-6.300;2023-02-16T08:17:00;100845.59;;;11.79;72.94
61537;BME280;48695;53.480;-6.300;2023-02-16T08:19:25;100856.06;;;11.79;72.77
61537;BME280;48695;53.480;-6.300;2023-02-16T08:21:53;100863.91;;;11.79;72.89
61537;BME280;48695;53.480;-6.300;2023-02-16T08:24:18;100867.56;;;11.73;72.66
61537;BME280;48695;53.480;-6.300;2023-02-16T08:26:44;100890.16;;;11.76;72.75
61537;BME280;48695;53.480;-6.300;2023-02-16T08:29:15;100891.03;;;11.75;73.05
61537;BME280;48695;53.480;-6.300;2023-02-16T08:31:43;100895.41;;;11.74;73.08
61537;BME280;48695;53.480;-6.300;2023-02-16T08:34:10;100894.56;;;11.74;73.43
61537;BME280;48695;53.480;-6.300;2023-02-16T08:36:38;100874.88;;;11.59;72.94
61537;BME280;48695;53.480;-6.300;2023-02-16T08:39:06;100899.78;;;11.74;73.01
61537;BME280;48695;53.480;-6.300;2023-02-16T08:41:35;100901.59;;;11.72;72.99
61537;BME280;48695;53.480;-6.300;2023-02-16T08:44:01;100903.28;;;11.74;72.57
61537;BME280;48695;53.480;-6.300;2023-02-16T08:46:32;100879.31;;;11.55;72.91
61537;BME280;48695;53.480;-6.300;2023-02-16T08:48:58;100862.13;;;11.45;72.71
61537;BME280;48695;53.480;-6.300;2023-02-16T08:51:29;100909.41;;;11.73;73.22
61537;BME280;48695;53.480;-6.300;2023-02-16T08:53:57;100903.31;;;11.73;73.39
61537;BME280;48695;53.480;-6.300;2023-02-16T08:56:22;100898.09;;;11.73;73.34
61537;BME280;48695;53.480;-6.300;2023-02-16T08:58:48;100906.75;;;11.75;72.95
61537;BME280;48695;53.480;-6.300;2023-02-16T09:01:14;100908.47;;;11.76;73.31
61537;BME280;48695;53.480;-6.300;2023-02-16T09:03:41;100906.69;;;11.78;73.03
61537;BME280;48695;53.480;-6.300;2023-02-16T09:06:08;100913.63;;;11.79;73.26
61537;BME280;48695;53.480;-6.300;2023-02-16T09:08:34;100917.06;;;11.81;73.32
61537;BME280;48695;53.480;-6.300;2023-02-16T09:11:05;100921.44;;;11.82;72.85
61537;BME280;48695;53.480;-6.300;2023-02-16T09:13:35;100921.34;;;11.86;72.70
61537;BME280;48695;53.480;-6.300;2023-02-16T09:16:09;100924.81;;;11.87;72.76
61537;BME280;48695;53.480;-6.300;2023-02-16T09:18:36;100939.66;;;11.85;72.92
61537;BME280;48695;53.480;-6.300;2023-02-16T09:21:05;100942.28;;;11.86;73.03
61537;BME280;48695;53.480;-6.300;2023-02-16T09:23:34;100944.91;;;11.85;73.17
61537;BME280;48695;53.480;-6.300;2023-02-16T09:26:00;100898.16;;;11.69;72.85
61537;BME280;48695;53.480;-6.300;2023-02-16T09:28:32;100921.41;;;11.83;73.17
61537;BME280;48695;53.480;-6.300;2023-02-16T09:30:58;100892.31;;;11.58;72.78
61537;BME280;48695;53.480;-6.300;2023-02-16T09:33:23;100924.19;;;11.74;73.32
61537;BME280;48695;53.480;-6.300;2023-02-16T09:35:49;100943.31;;;11.78;73.28
61537;BME280;48695;53.480;-6.300;2023-02-16T09:38:14;100939.84;;;11.76;73.09
61537;BME280;48695;53.480;-6.300;2023-02-16T09:40:43;100922.75;;;11.62;73.33
61537;BME280;48695;53.480;-6.300;2023-02-16T09:46:02;100908.97;;;11.54;72.68
61537;BME280;48695;53.480;-6.300;2023-02-16T09:48:39;100944.41;;;11.67;72.78
61537;BME280;48695;53.480;-6.300;2023-02-16T09:51:34;100926.47;;;11.52;72.61
61537;BME280;48695;53.480;-6.300;2023-02-16T09:54:11;100960.06;;;11.69;72.58
61537;BME280;48695;53.480;-6.300;2023-02-16T09:56:53;100978.44;;;11.67;72.84
61537;BME280;48695;53.480;-6.300;2023-02-16T09:59:40;100992.41;;;11.66;72.25
61537;BME280;48695;53.480;-6.300;2023-02-16T10:10:02;100989.47;;;11.40;72.49
61537;BME280;48695;53.480;-6.300;2023-02-16T10:12:37;101013.53;;;11.57;72.49
61537;BME280;48695;53.480;-6.300;2023-02-16T10:15:27;101021.34;;;11.59;72.62
61537;BME280;48695;53.480;-6.300;2023-02-16T10:18:00;101029.22;;;11.57;73.11
61537;BME280;48695;53.480;-6.300;2023-02-16T10:20:31;101046.63;;;11.58;73.10
61537;BME280;48695;53.480;-6.300;2023-02-16T10:23:06;101047.44;;;11.60;72.66
61537;BME280;48695;53.480;-6.300;2023-02-16T10:28:41;101045.72;;;11.61;72.88
61537;BME280;48695;53.480;-6.300;2023-02-16T10:33:59;101029.03;;;11.66;73.20
61537;BME280;48695;53.480;-6.300;2023-02-16T10:39:23;101020.44;;;11.61;72.68
61537;BME280;48695;53.480;-6.300;2023-02-16T10:42:06;101041.03;;;11.77;72.91
61537;BME280;48695;53.480;-6.300;2023-02-16T10:44:39;101057.53;;;11.79;72.63
61537;BME280;48695;53.480;-6.300;2023-02-16T10:47:26;101049.66;;;11.82;72.43
61537;BME280;48695;53.480;-6.300;2023-02-16T10:49:53;101041.78;;;11.80;72.21
61537;BME280;48695;53.480;-6.300;2023-02-16T10:52:19;101047.88;;;11.81;72.25
61537;BME280;48695;53.480;-6.300;2023-02-16T10:54:46;101046.16;;;11.83;72.27
61537;BME280;48695;53.480;-6.300;2023-02-16T10:57:24;101040.81;;;11.86;72.13
61537;BME280;48695;53.480;-6.300;2023-02-16T10:59:52;101050.44;;;11.85;71.75
61537;BME280;48695;53.480;-6.300;2023-02-16T11:02:24;101040.81;;;11.86;72.30
61537;BME280;48695;53.480;-6.300;2023-02-16T11:04:54;101026.81;;;11.88;72.20
61537;BME280;48695;53.480;-6.300;2023-02-16T11:07:25;101025.00;;;11.92;71.93
61537;BME280;48695;53.480;-6.300;2023-02-16T11:09:53;101029.34;;;11.93;71.81
61537;BME280;48695;53.480;-6.300;2023-02-16T11:17:27;101048.41;;;11.98;71.00
61537;BME280;48695;53.480;-6.300;2023-02-16T11:20:04;101048.47;;;11.97;71.50
61537;BME280;48695;53.480;-6.300;2023-02-16T11:22:37;101050.19;;;11.96;71.17
61537;BME280;48695;53.480;-6.300;2023-02-16T11:27:56;101016.78;;;11.68;70.79
61537;BME280;48695;53.480;-6.300;2023-02-16T11:30:33;101059.84;;;11.94;71.07
61537;BME280;48695;53.480;-6.300;2023-02-16T11:33:01;101060.03;;;11.86;70.89
61537;BME280;48695;53.480;-6.300;2023-02-16T11:35:29;101065.19;;;11.89;71.07
61537;BME280;48695;53.480;-6.300;2023-02-16T11:37:57;101068.81;;;11.81;70.97
61537;BME280;48695;53.480;-6.300;2023-02-16T11:40:28;101065.28;;;11.85;71.01
61537;BME280;48695;53.480;-6.300;2023-02-16T11:42:57;101049.69;;;11.79;71.09
61537;BME280;48695;53.480;-6.300;2023-02-16T11:45:35;101062.66;;;11.85;71.01
61537;BME280;48695;53.480;-6.300;2023-02-16T11:48:06;101058.31;;;11.84;70.80
61537;BME280;48695;53.480;-6.300;2023-02-16T11:50:35;101048.72;;;11.84;71.40
61537;BME280;48695;53.480;-6.300;2023-02-16T11:55:33;101051.22;;;11.89;71.60
61537;BME280;48695;53.480;-6.300;2023-02-16T12:01:14;101035.19;;;12.04;71.70
61537;BME280;48695;53.480;-6.300;2023-02-16T12:06:43;101010.06;;;12.33;71.34
61537;BME280;48695;53.480;-6.300;2023-02-16T12:09:17;101021.06;;;12.47;70.97
61537;BME280;48695;53.480;-6.300;2023-02-16T12:14:41;100996.88;;;12.70;70.96
61537;BME280;48695;53.480;-6.300;2023-02-16T12:22:47;101012.41;;;13.40;69.72
61537;BME280;48695;53.480;-6.300;2023-02-16T12:25:31;100999.66;;;13.57;69.73
61537;BME280;48695;53.480;-6.300;2023-02-16T12:30:50;101012.53;;;13.93;69.81
61537;BME280;48695;53.480;-6.300;2023-02-16T12:33:28;101024.69;;;14.23;69.64
61537;BME280;48695;53.480;-6.300;2023-02-16T12:36:14;101001.88;;;14.52;67.96
61537;BME280;48695;53.480;-6.300;2023-02-16T12:41:38;100940.50;;;14.78;66.96
61537;BME280;48695;53.480;-6.300;2023-02-16T12:44:12;100991.59;;;15.43;64.98
61537;BME280;48695;53.480;-6.300;2023-02-16T12:46:42;100984.91;;;15.56;63.58
61537;BME280;48695;53.480;-6.300;2023-02-16T12:51:49;100992.75;;;15.81;62.56
61537;BME280;48695;53.480;-6.300;2023-02-16T12:54:30;100992.03;;;15.77;62.31
61537;BME280;48695;53.480;-6.300;2023-02-16T12:57:11;100996.38;;;15.78;61.68
61537;BME280;48695;53.480;-6.300;2023-02-16T12:59:47;100989.50;;;15.74;61.61
61537;BME280;48695;53.480;-6.300;2023-02-16T13:02:31;100977.16;;;15.53;60.86
61537;BME280;48695;53.480;-6.300;2023-02-16T13:07:30;100998.56;;;15.44;60.72
61537;BME280;48695;53.480;-6.300;2023-02-16T13:10:12;100993.63;;;15.35;61.20
61537;BME280;48695;53.480;-6.300;2023-02-16T13:12:56;100985.19;;;15.26;61.75
61537;BME280;48695;53.480;-6.300;2023-02-16T13:18:04;100966.66;;;15.06;62.67
61537;BME280;48695;53.480;-6.300;2023-02-16T13:20:31;100980.50;;;15.11;62.80
61537;BME280;48695;53.480;-6.300;2023-02-16T13:28:35;100961.53;;;15.25;62.75
61537;BME280;48695;53.480;-6.300;2023-02-16T13:42:01;100943.31;;;15.20;62.10
61537;BME280;48695;53.480;-6.300;2023-02-16T13:44:42;100945.16;;;15.18;62.01
61537;BME280;48695;53.480;-6.300;2023-02-16T13:47:16;100935.66;;;15.14;61.53
61537;BME280;48695;53.480;-6.300;2023-02-16T13:49:44;100949.13;;;15.05;61.18
61537;BME280;48695;53.480;-6.300;2023-02-16T13:54:58;100938.13;;;14.95;61.92
61537;BME280;48695;53.480;-6.300;2023-02-16T14:00:48;100932.22;;;14.89;62.19
61537;BME280;48695;53.480;-6.300;2023-02-16T14:05:54;100916.00;;;14.77;62.69
61537;BME280;48695;53.480;-6.300;2023-02-16T14:08:26;100904.56;;;14.78;62.24
61537;BME280;48695;53.480;-6.300;2023-02-16T14:15:53;100913.03;;;14.87;62.93
61537;BME280;48695;53.480;-6.300;2023-02-16T14:18:47;100924.06;;;14.96;63.23
61537;BME280;48695;53.480;-6.300;2023-02-16T14:21:42;100922.72;;;15.08;62.79
61537;BME280;48695;53.480;-6.300;2023-02-16T14:24:31;100908.50;;;15.14;62.51
61537;BME280;48695;53.480;-6.300;2023-02-16T14:27:09;100906.72;;;15.14;62.08
61537;BME280;48695;53.480;-6.300;2023-02-16T14:29:44;100906.38;;;15.23;62.10
61537;BME280;48695;53.480;-6.300;2023-02-16T14:32:26;100907.97;;;15.27;61.57
61537;BME280;48695;53.480;-6.300;2023-02-16T14:35:12;100897.97;;;15.36;61.76
61537;BME280;48695;53.480;-6.300;2023-02-16T14:40:38;100893.53;;;15.38;61.25
61537;BME280;48695;53.480;-6.300;2023-02-16T14:43:21;100877.75;;;15.38;61.13
61537;BME280;48695;53.480;-6.300;2023-02-16T14:48:29;100877.59;;;15.41;61.39
61537;BME280;48695;53.480;-6.300;2023-02-16T14:57:12;100875.38;;;15.31;60.59
61537;BME280;48695;53.480;-6.300;2023-02-16T15:00:11;100856.13;;;15.29;61.18
61537;BME280;48695;53.480;-6.300;2023-02-16T15:02:53;100851.91;;;15.25;61.56
61537;BME280;48695;53.480;-6.300;2023-02-16T15:05:22;100843.13;;;15.26;61.58
61537;BME280;48695;53.480;-6.300;2023-02-16T15:07:51;100818.09;;;15.16;61.25
61537;BME280;48695;53.480;-6.300;2023-02-16T15:10:23;100817.03;;;15.20;61.31